createdAt,value
2018-08-11T06:16:38.862Z,45.84
2018-08-11T06:17:41.384Z,46.62
2018-08-11T06:18:43.904Z,46.61
2018-08-11T06:19:46.377Z,46.22
2018-08-11T06:20:48.888Z,46.07
2018-08-11T06:21:51.779Z,45.82
2018-08-11T06:22:54.261Z,46.15
2018-08-11T06:23:56.761Z,46.01
2018-08-11T06:24:59.257Z,46.28
2018-08-11T06:26:01.745Z,46.18
2018-08-11T06:27:04.250Z,46.83
2018-08-11T07:05:35.065Z,50.29
2018-08-11T07:06:37.796Z,50.99
2018-08-11T07:07:40.368Z,51.00
2018-08-11T07:08:43.887Z,51.59
2018-08-11T07:09:46.368Z,51.99
2018-08-11T07:10:49.225Z,51.71
2018-08-11T07:11:51.754Z,51.70
2018-08-11T07:12:54.250Z,50.95
2018-08-11T07:13:56.724Z,50.85
2018-08-11T07:15:00.035Z,50.66
2018-08-11T07:16:02.556Z,50.75
2018-08-11T07:17:05.061Z,50.16
2018-08-11T07:18:07.537Z,50.85
2018-08-11T07:19:10.012Z,50.07
2018-08-11T07:20:12.486Z,50.05
2018-08-11T07:21:15.027Z,49.43
2018-08-11T07:22:17.966Z,49.60
2018-08-11T07:23:20.492Z,49.75
2018-08-11T07:24:22.998Z,50.62
2018-08-11T07:25:25.488Z,50.91
2018-08-11T07:26:28.271Z,50.27
2018-08-11T07:27:33.793Z,50.96
2018-08-11T07:28:36.269Z,50.23
2018-08-11T07:29:39.405Z,50.96
2018-08-11T07:30:41.911Z,50.02
2018-08-11T07:31:44.415Z,50.59
2018-08-11T07:32:46.906Z,49.01
2018-08-11T07:33:49.796Z,48.43
2018-08-11T07:34:52.263Z,47.94
2018-08-11T07:35:54.787Z,48.04
2018-08-11T07:36:57.263Z,48.18
2018-08-11T07:37:59.792Z,48.30
2018-08-11T07:39:02.300Z,47.94
2018-08-11T19:39:59.334Z,42.95
2018-08-11T19:41:01.934Z,41.79
2018-08-11T19:42:04.528Z,40.35
2018-08-11T21:35:32.969Z,37.55
2018-08-11T21:36:36.563Z,37.33
